Boras — TCGU — position and weather

sailwx.info

Track history (hours):
 
Tides and Currents Weather Stations Pressure Air Temp Water Temp Dewpoint Dewpoint Depression Visibility Wind Speed Wind Dir Waves Ship Positions

Boras

Last reported at 2014-Jul-25 15:17 UTC. Time now 2014-Jul-28 22:32 UTC.
Position N 40°34' E 028°47'.

Length 103 m; draft 4.1 m.

Type: Cargo ship. MMSI: 271000352.

Date/timePositionNaut miles runAvg speedWind from/ knotsBaromVisibWave heightAir tempDewpointWater temp
2014-Jul-25 15:17N 40°34' E 028°47'8 9.4
2014-Jul-25 14:25N 40°39' E 028°54'8 8.8
2014-Jul-25 13:33N 40°44' E 029°02'9 8.9
2014-Jul-25 12:34N 40°50' E 029°11'2 1.4
2014-Jul-25 11:30N 40°51' E 029°12'0 0.0
2014-Jul-25 10:33N 40°51' E 029°12'0 0.1
2014-Jul-25 09:29N 40°51' E 029°12'0 0.1
2014-Jul-25 08:17N 40°51' E 029°12'0 0.1
2014-Jul-25 07:22N 40°51' E 029°12'0 0.0
2014-Jul-25 06:24N 40°51' E 029°12'0 0.0
2014-Jul-25 05:26N 40°51' E 029°12'0 0.0
2014-Jul-25 04:32N 40°51' E 029°12'0 0.0
2014-Jul-25 03:20N 40°51' E 029°12'0 0.0
2014-Jul-25 02:15N 40°51' E 029°12'0 0.1
2014-Jul-25 01:17N 40°51' E 029°12'0 0.0
2014-Jul-25 00:33N 40°51' E 029°12'0 0.0
2014-Jul-24 23:33N 40°51' E 029°12'0 0.1
2014-Jul-24 22:33N 40°51' E 029°12'0 0.1
2014-Jul-24 21:33N 40°51' E 029°12'0 0.0
2014-Jul-24 20:33N 40°51' E 029°12'0 0.0
2014-Jul-24 19:33N 40°51' E 029°12'0 0.0
2014-Jul-24 18:33N 40°51' E 029°12'0 0.0
2014-Jul-24 17:33N 40°51' E 029°12'0 0.0
2014-Jul-24 16:33N 40°51' E 029°12'0 0.0
2014-Jul-24 15:32N 40°51' E 029°12'0 0.1
2014-Jul-24 14:33N 40°51' E 029°12'0 0.0
2014-Jul-24 13:29N 40°51' E 029°12'0 0.0
2014-Jul-24 12:33N 40°51' E 029°12'0 0.0
2014-Jul-24 11:33N 40°51' E 029°12'0 0.1
2014-Jul-24 10:33N 40°51' E 029°12'0 0.0
2014-Jul-24 09:33N 40°51' E 029°12'0 0.0
2014-Jul-24 08:33N 40°51' E 029°12'0 0.0
2014-Jul-24 07:33N 40°51' E 029°12'0 0.0
2014-Jul-24 06:33N 40°51' E 029°12'0 0.0
2014-Jul-24 05:33N 40°51' E 029°12'0 0.0
2014-Jul-24 04:33N 40°51' E 029°12'0 0.0
2014-Jul-24 03:33N 40°51' E 029°12'0 0.0
2014-Jul-24 02:33N 40°51' E 029°12'4 4.5
2014-Jul-24 01:33N 40°47' E 029°09'8 7.8
2014-Jul-24 00:33N 40°44' E 028°60'9 8.1
2014-Jul-23 23:25N 40°42' E 028°48'  
Track history (hours):
 
Tides and Currents Weather Stations Pressure Air Temp Water Temp Dewpoint Dewpoint Depression Visibility Wind Speed Wind Dir Waves Ship Positions

Boras

Last reported at 2014-Jul-25 15:17 UTC. Time now 2014-Jul-28 22:32 UTC.
Position N 40°34' E 028°47'.

Length 103 m; draft 4.1 m.

Type: Cargo ship. MMSI: 271000352.

Date/timePositionNaut miles runAvg speedWind from/ knotsBaromVisibWave heightAir tempDewpointWater temp
2014-Jul-25 15:17N 40°34' E 028°47'8 9.4
2014-Jul-25 14:25N 40°39' E 028°54'8 8.8
2014-Jul-25 13:33N 40°44' E 029°02'9 8.9
2014-Jul-25 12:34N 40°50' E 029°11'2 1.4
2014-Jul-25 11:30N 40°51' E 029°12'0 0.0
2014-Jul-25 10:33N 40°51' E 029°12'0 0.1
2014-Jul-25 09:29N 40°51' E 029°12'0 0.1
2014-Jul-25 08:17N 40°51' E 029°12'0 0.1
2014-Jul-25 07:22N 40°51' E 029°12'0 0.0
2014-Jul-25 06:24N 40°51' E 029°12'0 0.0
2014-Jul-25 05:26N 40°51' E 029°12'0 0.0
2014-Jul-25 04:32N 40°51' E 029°12'0 0.0
2014-Jul-25 03:20N 40°51' E 029°12'0 0.0
2014-Jul-25 02:15N 40°51' E 029°12'0 0.1
2014-Jul-25 01:17N 40°51' E 029°12'0 0.0
2014-Jul-25 00:33N 40°51' E 029°12'0 0.0
2014-Jul-24 23:33N 40°51' E 029°12'0 0.1
2014-Jul-24 22:33N 40°51' E 029°12'0 0.1
2014-Jul-24 21:33N 40°51' E 029°12'0 0.0
2014-Jul-24 20:33N 40°51' E 029°12'0 0.0
2014-Jul-24 19:33N 40°51' E 029°12'0 0.0
2014-Jul-24 18:33N 40°51' E 029°12'0 0.0
2014-Jul-24 17:33N 40°51' E 029°12'0 0.0
2014-Jul-24 16:33N 40°51' E 029°12'0 0.0
2014-Jul-24 15:32N 40°51' E 029°12'0 0.1
2014-Jul-24 14:33N 40°51' E 029°12'0 0.0
2014-Jul-24 13:29N 40°51' E 029°12'0 0.0
2014-Jul-24 12:33N 40°51' E 029°12'0 0.0
2014-Jul-24 11:33N 40°51' E 029°12'0 0.1
2014-Jul-24 10:33N 40°51' E 029°12'0 0.0
2014-Jul-24 09:33N 40°51' E 029°12'0 0.0
2014-Jul-24 08:33N 40°51' E 029°12'0 0.0
2014-Jul-24 07:33N 40°51' E 029°12'0 0.0
2014-Jul-24 06:33N 40°51' E 029°12'0 0.0
2014-Jul-24 05:33N 40°51' E 029°12'0 0.0
2014-Jul-24 04:33N 40°51' E 029°12'0 0.0
2014-Jul-24 03:33N 40°51' E 029°12'0 0.0
2014-Jul-24 02:33N 40°51' E 029°12'4 4.5
2014-Jul-24 01:33N 40°47' E 029°09'8 7.8
2014-Jul-24 00:33N 40°44' E 028°60'9 8.1
2014-Jul-23 23:25N 40°42' E 028°48'  

Dump ship's entire track history